powered by Meteolive.it
Dati meteo   Attuali  Passati Ogni 3 ore 7 Giorni 15 Giorni Avvisi Meteo Mappe meteo
Palermo / Punta Raisi, Italy
Alba: 4:50 AM UTC1
Tramonto: 7:17 PM UTC1
 Lat: 38.17N, Lon: 13.08E
ICAO Usato: LICJ
Condizioni Meteo Attuali Aggiornate: 23.05.2017 alle 10:20 LT
Quasi Sereno
Quasi Sereno
Sereno
Quasi Sereno
Temp: 19°C
Umidita': 73%
Direz/Vel. Vento: WSW 03 KTS raffiche
Pressione: 1019 hPa
Punto di rugiada: 14°C
Temperatura percepita: 19°C
Visibilitą: >10 KM (ottima)
Temperatura percepita in
presenza di vento (Wind Chill)
:
19°C
T. max (ultime 24 ore): 19°C
T. min (ultime 24 ore): 16°C


METAR ORIGINALE
LICJ 230620Z 25003KT CAVOK 19/14 Q1019